首页
METAR-TAF:

METAR-TAF

机场 :

迈林根, 瑞士

纬度: 46-44-25N, 经度: 8-06-36E, 海拔: 577米

当前天气观测

该预报发布于36分钟前的05:20 UTC
风速6节,风向东转东南,在东转东北东南之间变化
温度 -2°C
湿度 100%
气压 1015 hPa
能見度: 7000
少量云层高于16000英尺
散云层高于18000英尺

METAR: LSMM 190520Z AUTO 11006KT 060V130 7000NDV FEW160 SCT180 M02/M02 Q1015 RMK

时间: 06:56 (05:56 UTC)


TAF: 丢失

超过4000个机场的气象观测和天气预报(METAR&TAF报告)。

可查询的气象台以黄色和红色小点在地图上表示。

将鼠标移到小点上方,可查看气象台名称。

然后点击查看天气观测和预报。

如需切换地图:点击带黑十字的绿色按钮放大地图;点击带横线的绿色按钮缩小地图;或者点击绿色箭头查看邻近地区的地图。


METAR-TAF: